AFR605 TFFF-MDSD
Flight info
| Callsign | AFR605 |
|---|---|
| Flight time | N/A |
| Altitude | 30000 |
| Route | EMOLA2R EMOLA A555 ILURI DCT SATOE DCT KARIB KARIB2G |
| Aircraft | A320/M-SDE3FGHIRWY/LB1 |
Departure
| Time | 2026-05-01 14:22 |
|---|---|
| Airport | Martinique Aimé Césaire International Airport (TFFF) |
Arrival
| Time | N/A |
|---|---|
| Airport | Las Américas International Airport (MDSD) |
| Time | Latitude | Longitude | Altitude | Speed | Heading |
|---|---|---|---|---|---|
| 2026-05-01 13:48 | 14.59481 | -61.00101 | 19 ft | 0 kts | 32° |
| 2026-05-01 14:12 | 14.59471 | -61.00107 | 18 ft | 3 kts | 34° |
| 2026-05-01 14:12 | 14.59455 | -61.00119 | 18 ft | 3 kts | 37° |
| 2026-05-01 14:13 | 14.59438 | -61.00132 | 18 ft | 3 kts | 34° |
| 2026-05-01 14:13 | 14.59424 | -61.00142 | 20 ft | 3 kts | 53° |
| 2026-05-01 14:13 | 14.59416 | -61.00161 | 20 ft | 3 kts | 95° |
| 2026-05-01 14:13 | 14.59420 | -61.00177 | 20 ft | 1 kts | 124° |
| 2026-05-01 14:14 | 14.59421 | -61.00179 | 20 ft | 0 kts | 126° |
| 2026-05-01 14:16 | 14.59409 | -61.00160 | 19 ft | 8 kts | 122° |
| 2026-05-01 14:16 | 14.59382 | -61.00105 | 18 ft | 9 kts | 112° |
| 2026-05-01 14:17 | 14.59342 | -61.00048 | 19 ft | 11 kts | 159° |
| 2026-05-01 14:17 | 14.59258 | -61.00035 | 20 ft | 12 kts | 172° |
| 2026-05-01 14:17 | 14.59172 | -61.00024 | 18 ft | 11 kts | 195° |
| 2026-05-01 14:17 | 14.59143 | -61.00106 | 17 ft | 16 kts | 261° |
| 2026-05-01 14:18 | 14.59121 | -61.00246 | 16 ft | 22 kts | 260° |
| 2026-05-01 14:18 | 14.59097 | -61.00389 | 16 ft | 20 kts | 260° |
| 2026-05-01 14:18 | 14.59073 | -61.00527 | 15 ft | 19 kts | 260° |
| 2026-05-01 14:18 | 14.59059 | -61.00610 | 16 ft | 17 kts | 259° |
| 2026-05-01 14:19 | 14.59035 | -61.00741 | 21 ft | 11 kts | 259° |
| 2026-05-01 14:19 | 14.59018 | -61.00841 | 25 ft | 22 kts | 259° |
| 2026-05-01 14:19 | 14.58979 | -61.01057 | 23 ft | 35 kts | 260° |
| 2026-05-01 14:19 | 14.58945 | -61.01264 | 27 ft | 28 kts | 260° |
| 2026-05-01 14:20 | 14.58912 | -61.01462 | 22 ft | 27 kts | 260° |
| 2026-05-01 14:20 | 14.58884 | -61.01768 | 18 ft | 8 kts | 306° |
| 2026-05-01 14:20 | 14.58879 | -61.01820 | 16 ft | 10 kts | 186° |
| 2026-05-01 14:21 | 14.58860 | -61.01760 | 19 ft | 10 kts | 79° |
| 2026-05-01 14:21 | 14.58861 | -61.01753 | 17 ft | 0 kts | 80° |
| 2026-05-01 14:22 | 14.59000 | -61.00921 | 22 ft | 121 kts | 81° |
| 2026-05-01 14:22 | 14.59171 | -60.99886 | 49 ft | 164 kts | 81° |
| 2026-05-01 14:22 | 14.59354 | -60.98768 | 786 ft | 158 kts | 79° |
| 2026-05-01 14:22 | 14.59563 | -60.97666 | 1496 ft | 155 kts | 81° |
| 2026-05-01 14:23 | 14.59768 | -60.96545 | 1959 ft | 166 kts | 82° |
| 2026-05-01 14:23 | 14.59979 | -60.95290 | 2239 ft | 189 kts | 81° |
| 2026-05-01 14:23 | 14.60219 | -60.93866 | 2563 ft | 214 kts | 82° |
| 2026-05-01 14:23 | 14.60486 | -60.92271 | 2969 ft | 237 kts | 81° |
| 2026-05-01 14:24 | 14.60779 | -60.90543 | 3583 ft | 250 kts | 80° |
| 2026-05-01 14:24 | 14.61453 | -60.88883 | 4347 ft | 259 kts | 51° |
| 2026-05-01 14:24 | 14.62984 | -60.87881 | 5180 ft | 271 kts | 17° |
| 2026-05-01 14:24 | 14.64894 | -60.87845 | 5988 ft | 281 kts | 354° |
| 2026-05-01 14:25 | 14.66804 | -60.88348 | 6759 ft | 286 kts | 346° |
| 2026-05-01 14:25 | 14.68708 | -60.89015 | 7492 ft | 290 kts | 343° |
| 2026-05-01 14:25 | 14.70622 | -60.89683 | 8274 ft | 291 kts | 344° |
| 2026-05-01 14:25 | 14.72568 | -60.90296 | 9030 ft | 293 kts | 347° |
| 2026-05-01 14:26 | 14.74541 | -60.90846 | 9777 ft | 295 kts | 347° |
| 2026-05-01 14:26 | 14.78721 | -60.91862 | 10524 ft | 325 kts | 348° |
| 2026-05-01 14:26 | 14.80956 | -60.92369 | 11085 ft | 331 kts | 348° |
| 2026-05-01 14:27 | 14.82483 | -60.92712 | 11500 ft | 334 kts | 348° |
| 2026-05-01 14:27 | 14.84776 | -60.93230 | 12130 ft | 338 kts | 348° |
| 2026-05-01 14:27 | 14.87085 | -60.93752 | 12748 ft | 343 kts | 348° |
| 2026-05-01 14:28 | 14.91570 | -60.95501 | 13913 ft | 351 kts | 325° |
| 2026-05-01 14:28 | 14.93421 | -60.97150 | 14465 ft | 352 kts | 311° |
| 2026-05-01 14:28 | 14.94839 | -60.99212 | 15027 ft | 353 kts | 297° |
| 2026-05-01 14:28 | 14.95739 | -61.01573 | 15576 ft | 354 kts | 285° |
| 2026-05-01 14:29 | 14.96425 | -61.04024 | 16148 ft | 355 kts | 285° |
| 2026-05-01 14:29 | 14.97117 | -61.06481 | 16701 ft | 357 kts | 285° |
| 2026-05-01 14:30 | 14.99231 | -61.13948 | 18354 ft | 363 kts | 284° |
| 2026-05-01 14:30 | 14.99942 | -61.16460 | 18829 ft | 365 kts | 284° |
| 2026-05-01 14:30 | 15.00659 | -61.18992 | 19295 ft | 367 kts | 285° |
| 2026-05-01 14:31 | 15.02101 | -61.24083 | 20251 ft | 371 kts | 285° |
| 2026-05-01 14:31 | 15.02828 | -61.26652 | 20725 ft | 372 kts | 285° |
| 2026-05-01 14:31 | 15.03557 | -61.29232 | 21190 ft | 374 kts | 285° |
| 2026-05-01 14:31 | 15.04290 | -61.31823 | 21641 ft | 376 kts | 285° |
| 2026-05-01 14:32 | 15.05026 | -61.34426 | 22095 ft | 378 kts | 285° |
| 2026-05-01 14:32 | 15.05766 | -61.37043 | 22538 ft | 380 kts | 285° |
| 2026-05-01 14:32 | 15.06510 | -61.39672 | 22971 ft | 382 kts | 285° |
| 2026-05-01 14:32 | 15.07257 | -61.42315 | 23395 ft | 384 kts | 285° |
| 2026-05-01 14:33 | 15.08007 | -61.44974 | 23813 ft | 385 kts | 285° |
| 2026-05-01 14:33 | 15.08758 | -61.47639 | 24164 ft | 387 kts | 285° |
| 2026-05-01 14:33 | 15.09514 | -61.50319 | 24512 ft | 389 kts | 285° |
| 2026-05-01 14:33 | 15.10272 | -61.53014 | 24846 ft | 391 kts | 285° |
| 2026-05-01 14:34 | 15.11030 | -61.55721 | 25174 ft | 393 kts | 285° |
| 2026-05-01 14:34 | 15.11794 | -61.58448 | 25503 ft | 395 kts | 285° |
| 2026-05-01 14:34 | 15.12563 | -61.61186 | 25835 ft | 398 kts | 285° |
| 2026-05-01 14:34 | 15.13583 | -61.63856 | 26161 ft | 402 kts | 295° |
| 2026-05-01 14:35 | 15.15087 | -61.66355 | 26477 ft | 406 kts | 306° |
| 2026-05-01 14:35 | 15.16944 | -61.68580 | 26786 ft | 410 kts | 309° |
| 2026-05-01 14:35 | 15.18858 | -61.70785 | 27094 ft | 413 kts | 309° |
| 2026-05-01 14:35 | 15.20784 | -61.72997 | 27403 ft | 415 kts | 309° |
| 2026-05-01 14:36 | 15.22721 | -61.75221 | 27711 ft | 417 kts | 309° |
| 2026-05-01 14:36 | 15.24667 | -61.77458 | 28015 ft | 419 kts | 309° |
| 2026-05-01 14:36 | 15.26619 | -61.79709 | 28316 ft | 421 kts | 309° |
| 2026-05-01 14:36 | 15.28578 | -61.81969 | 28612 ft | 424 kts | 309° |
| 2026-05-01 14:37 | 15.30560 | -61.84251 | 28918 ft | 426 kts | 309° |
| 2026-05-01 14:37 | 15.32542 | -61.86531 | 29213 ft | 428 kts | 309° |
| 2026-05-01 14:37 | 15.34540 | -61.88832 | 29514 ft | 430 kts | 309° |
| 2026-05-01 14:37 | 15.36544 | -61.91145 | 29798 ft | 432 kts | 309° |
| 2026-05-01 14:38 | 15.38561 | -61.93472 | 29982 ft | 434 kts | 309° |
| 2026-05-01 14:38 | 15.40552 | -61.95769 | 30018 ft | 421 kts | 309° |
| 2026-05-01 14:38 | 15.42477 | -61.97986 | 30017 ft | 405 kts | 309° |
| 2026-05-01 14:38 | 15.44326 | -62.00116 | 30018 ft | 394 kts | 309° |
| 2026-05-01 14:39 | 15.46149 | -62.02224 | 30018 ft | 391 kts | 308° |
| 2026-05-01 14:39 | 15.49736 | -62.06381 | 30019 ft | 382 kts | 308° |
| 2026-05-01 14:40 | 15.53259 | -62.10460 | 30020 ft | 379 kts | 308° |
| 2026-05-01 14:40 | 15.56779 | -62.14533 | 30020 ft | 379 kts | 308° |
| 2026-05-01 14:41 | 15.60293 | -62.18599 | 30014 ft | 378 kts | 308° |
| 2026-05-01 14:41 | 15.63804 | -62.22667 | 30014 ft | 378 kts | 308° |
| 2026-05-01 14:42 | 15.67308 | -62.26737 | 30002 ft | 379 kts | 309° |
| 2026-05-01 14:42 | 15.70816 | -62.30817 | 30002 ft | 379 kts | 308° |
| 2026-05-01 14:43 | 15.74351 | -62.34931 | 29998 ft | 379 kts | 309° |
| 2026-05-01 14:43 | 15.77842 | -62.38993 | 30000 ft | 380 kts | 309° |
| 2026-05-01 14:44 | 15.81385 | -62.43102 | 30004 ft | 380 kts | 309° |
| 2026-05-01 14:44 | 15.86658 | -62.49239 | 30033 ft | 378 kts | 308° |
| 2026-05-01 14:45 | 15.91884 | -62.55321 | 30042 ft | 375 kts | 308° |
| 2026-05-01 14:46 | 15.95355 | -62.59356 | 30036 ft | 374 kts | 308° |
| 2026-05-01 14:46 | 16.00530 | -62.65400 | 30025 ft | 373 kts | 307° |
| 2026-05-01 14:47 | 16.03978 | -62.69429 | 30015 ft | 373 kts | 308° |
| 2026-05-01 14:48 | 16.09151 | -62.75469 | 30013 ft | 373 kts | 308° |
| 2026-05-01 14:48 | 16.14366 | -62.81561 | 30015 ft | 373 kts | 308° |
| 2026-05-01 14:49 | 16.21362 | -62.89740 | 29993 ft | 375 kts | 308° |
| 2026-05-01 14:50 | 16.27805 | -62.97301 | 29995 ft | 376 kts | 307° |
| 2026-05-01 14:51 | 16.31371 | -63.04374 | 29997 ft | 367 kts | 284° |
| 2026-05-01 14:52 | 16.33589 | -63.12119 | 30006 ft | 367 kts | 284° |
| 2026-05-01 14:53 | 16.35781 | -63.19762 | 30002 ft | 367 kts | 284° |
| 2026-05-01 14:53 | 16.37247 | -63.24865 | 30003 ft | 367 kts | 284° |
| 2026-05-01 14:54 | 16.38701 | -63.29967 | 30004 ft | 367 kts | 284° |
| 2026-05-01 14:54 | 16.40157 | -63.35065 | 30005 ft | 367 kts | 284° |
| 2026-05-01 14:55 | 16.41610 | -63.40161 | 30005 ft | 367 kts | 284° |
| 2026-05-01 14:55 | 16.43057 | -63.45261 | 30017 ft | 367 kts | 283° |
| 2026-05-01 14:56 | 16.44505 | -63.50346 | 30021 ft | 366 kts | 283° |
| 2026-05-01 14:56 | 16.45964 | -63.55454 | 30022 ft | 365 kts | 283° |
| 2026-05-01 14:57 | 16.47396 | -63.60521 | 30018 ft | 364 kts | 283° |
| 2026-05-01 14:57 | 16.49546 | -63.68109 | 30015 ft | 364 kts | 283° |
| 2026-05-01 14:58 | 16.50975 | -63.73162 | 30013 ft | 364 kts | 283° |
| 2026-05-01 14:58 | 16.52409 | -63.78225 | 30001 ft | 365 kts | 283° |
| 2026-05-01 14:59 | 16.53850 | -63.83307 | 29996 ft | 367 kts | 283° |
| 2026-05-01 14:59 | 16.55291 | -63.88415 | 29993 ft | 368 kts | 283° |
| 2026-05-01 15:00 | 16.57458 | -63.96102 | 29999 ft | 369 kts | 283° |
| 2026-05-01 15:01 | 16.58900 | -64.01237 | 30004 ft | 369 kts | 283° |
| 2026-05-01 15:01 | 16.60360 | -64.06408 | 30006 ft | 370 kts | 283° |
| 2026-05-01 15:02 | 16.61816 | -64.11589 | 29998 ft | 370 kts | 283° |
| 2026-05-01 15:02 | 16.63258 | -64.16747 | 30001 ft | 371 kts | 283° |
| 2026-05-01 15:03 | 16.64721 | -64.21950 | 30004 ft | 371 kts | 283° |
| 2026-05-01 15:03 | 16.66175 | -64.27118 | 30003 ft | 371 kts | 283° |
| 2026-05-01 15:04 | 16.67620 | -64.32289 | 30003 ft | 371 kts | 283° |
| 2026-05-01 15:04 | 16.69065 | -64.37457 | 30007 ft | 371 kts | 283° |
| 2026-05-01 15:05 | 16.70512 | -64.42627 | 30008 ft | 372 kts | 283° |
| 2026-05-01 15:05 | 16.71951 | -64.47803 | 30008 ft | 372 kts | 283° |
| 2026-05-01 15:06 | 16.73398 | -64.52981 | 30005 ft | 371 kts | 283° |
| 2026-05-01 15:06 | 16.74841 | -64.58158 | 30018 ft | 371 kts | 283° |
| 2026-05-01 15:07 | 16.76276 | -64.63324 | 30030 ft | 371 kts | 283° |
| 2026-05-01 15:07 | 16.77714 | -64.68486 | 30029 ft | 370 kts | 283° |
| 2026-05-01 15:08 | 16.79144 | -64.73627 | 30035 ft | 369 kts | 283° |
| 2026-05-01 15:08 | 16.80558 | -64.78772 | 30029 ft | 368 kts | 283° |
| 2026-05-01 15:09 | 16.81978 | -64.83909 | 30023 ft | 368 kts | 283° |
| 2026-05-01 15:09 | 16.83404 | -64.89041 | 30020 ft | 368 kts | 283° |
| 2026-05-01 15:10 | 16.84828 | -64.94170 | 30017 ft | 368 kts | 283° |
| 2026-05-01 15:10 | 16.86951 | -65.01863 | 30032 ft | 367 kts | 283° |
| 2026-05-01 15:11 | 16.89069 | -65.09517 | 30035 ft | 365 kts | 283° |
| 2026-05-01 15:12 | 16.90471 | -65.14607 | 30028 ft | 364 kts | 283° |
| 2026-05-01 15:12 | 16.92335 | -65.21404 | 30026 ft | 364 kts | 283° |
| 2026-05-01 15:14 | 16.95822 | -65.34089 | 30039 ft | 361 kts | 283° |
| 2026-05-01 15:14 | 16.97877 | -65.41627 | 30043 ft | 358 kts | 283° |
| 2026-05-01 15:15 | 17.00611 | -65.51597 | 30041 ft | 356 kts | 283° |
| 2026-05-01 15:16 | 17.03328 | -65.61575 | 30034 ft | 355 kts | 284° |
| 2026-05-01 15:18 | 17.06701 | -65.73955 | 30041 ft | 354 kts | 283° |
| 2026-05-01 15:19 | 17.09388 | -65.83837 | 30029 ft | 353 kts | 283° |
| 2026-05-01 15:19 | 17.11391 | -65.91248 | 30026 ft | 353 kts | 283° |
| 2026-05-01 15:20 | 17.13387 | -65.98644 | 30032 ft | 352 kts | 284° |
| 2026-05-01 15:21 | 17.14715 | -66.03570 | 30027 ft | 351 kts | 284° |
| 2026-05-01 15:21 | 17.16041 | -66.08483 | 30024 ft | 351 kts | 284° |
| 2026-05-01 15:22 | 17.18021 | -66.15850 | 30018 ft | 350 kts | 284° |
| 2026-05-01 15:22 | 17.19342 | -66.20753 | 30014 ft | 351 kts | 284° |
| 2026-05-01 15:23 | 17.20677 | -66.25693 | 30019 ft | 351 kts | 283° |
| 2026-05-01 15:23 | 17.21998 | -66.30603 | 30015 ft | 351 kts | 283° |
| 2026-05-01 15:24 | 17.23314 | -66.35509 | 30011 ft | 351 kts | 283° |
| 2026-05-01 15:24 | 17.24631 | -66.40428 | 30005 ft | 351 kts | 283° |
| 2026-05-01 15:25 | 17.25952 | -66.45340 | 30011 ft | 351 kts | 283° |
| 2026-05-01 15:25 | 17.27272 | -66.50258 | 30014 ft | 351 kts | 283° |
| 2026-05-01 15:26 | 17.28583 | -66.55180 | 30013 ft | 351 kts | 283° |
| 2026-05-01 15:26 | 17.29896 | -66.60106 | 30014 ft | 351 kts | 283° |
| 2026-05-01 15:27 | 17.31211 | -66.65031 | 30011 ft | 351 kts | 283° |
| 2026-05-01 15:28 | 17.33194 | -66.72460 | 30014 ft | 351 kts | 283° |
| 2026-05-01 15:28 | 17.34506 | -66.77386 | 30012 ft | 351 kts | 282° |
| 2026-05-01 15:29 | 17.36462 | -66.84766 | 30012 ft | 351 kts | 282° |
| 2026-05-01 15:30 | 17.39079 | -66.94661 | 30002 ft | 354 kts | 282° |
| 2026-05-01 15:31 | 17.43044 | -67.09610 | 30000 ft | 355 kts | 282° |
| 2026-05-01 15:32 | 17.45680 | -67.19613 | 30002 ft | 355 kts | 282° |
| 2026-05-01 15:34 | 17.49641 | -67.34674 | 30004 ft | 357 kts | 282° |